Time;durP1;ratioP1;P1;durP2;ratioP2;P2;SDS_P1;SDS_P2;PMS_P1;PMS_P2;Temp;Humidity;BMP_temperature;BMP_pressure;BME280_temperature;BME280_humidity;BME280_pressure;Samples;Min_cycle;Max_cycle;Signal;HPM_P1;HPM_P2
2022/10/19 00:01:19;;;;;;;1.25;1.12;;;;;;;12.29;72.08;99854.19;4485763;32;34225;-71
2022/10/19 00:03:50;;;;;;;1.08;0.98;;;;;;;12.09;72.70;99854.38;4486803;32;34751;-71
2022/10/19 00:06:25;;;;;;;0.70;0.70;;;;;;;12.02;72.95;99857.91;4485579;32;34205;-71
2022/10/19 00:08:56;;;;;;;0.93;0.90;;;;;;;12.18;72.56;99849.91;4485513;32;35217;-71
2022/10/19 00:11:24;;;;;;;1.17;1.15;;;;;;;12.38;71.63;99844.53;4486722;32;32836;-71
2022/10/19 00:13:54;;;;;;;0.65;0.65;;;;;;;12.39;71.20;99841.03;4485571;32;33892;-71
2022/10/19 00:16:23;;;;;;;1.33;1.10;;;;;;;12.40;70.80;99841.00;4486480;32;35874;-71
2022/10/19 00:18:51;;;;;;;0.47;0.47;;;;;;;12.41;70.55;99844.50;4486662;32;34567;-71
2022/10/19 00:21:19;;;;;;;2.08;1.17;;;;;;;12.32;70.34;99835.88;4486499;32;34092;-71
2022/10/19 00:23:47;;;;;;;0.80;0.80;;;;;;;11.33;74.77;99842.69;4486764;32;33937;-71
2022/10/19 00:26:15;;;;;;;1.30;1.20;;;;;;;11.40;74.05;99831.38;4486783;32;35006;-71
2022/10/19 00:28:44;;;;;;;1.42;0.80;;;;;;;11.98;72.92;99834.44;4486484;32;34563;-71
2022/10/19 00:31:15;;;;;;;0.75;0.75;;;;;;;12.18;71.58;99835.16;4486436;32;33913;-71
2022/10/19 00:33:47;;;;;;;1.23;1.12;;;;;;;11.94;72.79;99831.00;4485110;32;33270;-71
2022/10/19 00:36:17;;;;;;;0.80;0.75;;;;;;;12.05;72.10;99826.56;4485363;32;35067;-71
2022/10/19 00:38:45;;;;;;;1.17;1.12;;;;;;;12.23;71.06;99841.19;4485272;32;34518;-71
2022/10/19 00:41:14;;;;;;;3.33;2.65;;;;;;;11.56;73.04;99827.78;4485243;32;34004;-71
2022/10/19 00:44:03;;;;;;;1.60;1.27;;;;;;;11.43;74.50;99830.47;4486359;32;33911;-71
2022/10/19 00:46:35;;;;;;;0.70;0.70;;;;;;;11.19;76.38;99828.00;4486362;32;35939;-71
2022/10/19 00:49:10;;;;;;;1.27;1.20;;;;;;;11.27;76.38;99819.28;4486431;32;34446;-71
2022/10/19 00:51:44;;;;;;;1.48;1.37;;;;;;;11.46;76.73;99815.66;4485240;32;33398;-71
2022/10/19 00:54:13;;;;;;;1.95;1.75;;;;;;;11.73;75.52;99805.91;4486484;32;33899;-71
2022/10/19 00:56:42;;;;;;;1.92;1.73;;;;;;;12.30;74.09;99794.97;4485164;32;35101;-71
2022/10/19 00:59:12;;;;;;;0.77;0.77;;;;;;;11.84;76.28;99793.66;4485137;32;34618;-72
2022/10/19 01:01:43;;;;;;;1.52;1.42;;;;;;;11.95;76.82;99788.37;4485099;32;34310;-71
2022/10/19 01:04:11;;;;;;;0.95;0.95;;;;;;;11.96;76.22;99782.25;4485136;32;33178;-71
2022/10/19 01:06:40;;;;;;;2.15;2.05;;;;;;;11.92;77.11;99786.63;4485901;32;34816;-71
2022/10/19 01:09:08;;;;;;;1.30;0.90;;;;;;;12.07;75.99;99784.75;4485061;32;34555;-72
2022/10/19 01:11:54;;;;;;;0.95;0.93;;;;;;;12.18;75.84;99788.16;4486261;32;33481;-71
2022/10/19 01:14:58;;;;;;;1.23;1.12;;;;;;;12.31;74.51;99787.13;4485036;32;33818;-71
2022/10/19 01:17:51;;;;;;;0.95;0.90;;;;;;;12.50;73.86;99784.31;4486368;32;35208;-71
2022/10/19 01:20:47;;;;;;;0.80;0.80;;;;;;;12.78;73.10;99773.56;4462383;31;35305;-71
2022/10/19 01:23:33;;;;;;;1.00;1.00;;;;;;;12.84;71.49;99776.06;4486127;32;34358;-71
2022/10/19 01:26:01;;;;;;;0.77;0.77;;;;;;;12.88;71.22;99778.63;4486120;32;34793;-71
2022/10/19 01:28:35;;;;;;;1.15;0.98;;;;;;;13.02;69.68;99775.84;4486050;32;34910;-72
2022/10/19 01:31:13;;;;;;;0.60;0.60;;;;;;;13.16;69.35;99773.00;4486196;32;35282;-71
2022/10/19 01:34:08;;;;;;;1.23;1.12;;;;;;;13.29;68.43;99773.72;4485856;32;33759;-71
2022/10/19 01:36:49;;;;;;;1.02;1.02;;;;;;;13.57;67.71;99768.06;4484881;32;34487;-71
2022/10/19 01:39:48;;;;;;;0.70;0.70;;;;;;;13.48;67.00;99756.00;4486057;32;35068;-71
2022/10/19 01:42:21;;;;;;;2.85;1.92;;;;;;;14.08;65.38;99759.34;4485953;32;34452;-71
2022/10/19 01:44:51;;;;;;;6.72;1.83;;;;;;;13.83;66.85;99750.16;4484838;32;33392;-71
2022/10/19 01:47:25;;;;;;;0.40;0.40;;;;;;;14.00;66.97;99741.16;4486111;32;33300;-71
2022/10/19 01:49:57;;;;;;;0.40;0.40;;;;;;;14.25;65.91;99736.31;4484788;32;34919;-71
2022/10/19 01:52:26;;;;;;;0.65;0.65;;;;;;;13.85;67.69;99734.44;4484752;32;34449;-71
2022/10/19 01:54:56;;;;;;;0.47;0.47;;;;;;;13.89;66.08;99735.25;4485065;32;34568;-71
2022/10/19 01:57:36;;;;;;;1.42;1.33;;;;;;;14.14;65.07;99736.53;4486241;32;34335;-71
2022/10/19 02:00:06;;;;;;;4.55;2.65;;;;;;;13.97;65.59;99735.97;4484751;32;34900;-72
2022/10/19 02:02:42;;;;;;;0.70;0.70;;;;;;;14.07;65.38;99742.78;4485853;32;34224;-71
2022/10/19 02:05:11;;;;;;;1.50;1.30;;;;;;;14.13;64.91;99757.50;4486105;32;34249;-71
2022/10/19 02:07:40;;;;;;;0.68;0.68;;;;;;;13.82;65.92;99758.94;4484708;32;34818;-72
2022/10/19 02:10:08;;;;;;;2.53;1.27;;;;;;;13.99;64.86;99760.38;4485724;32;35036;-71
2022/10/19 02:12:37;;;;;;;0.90;0.90;;;;;;;13.92;65.08;99764.84;4486012;32;35137;-71
2022/10/19 02:15:09;;;;;;;1.98;1.77;;;;;;;13.69;66.00;99762.63;4485943;32;34385;-71
2022/10/19 02:17:43;;;;;;;0.68;0.68;;;;;;;13.70;65.87;99769.59;4483656;32;33970;-71
2022/10/19 02:20:11;;;;;;;1.25;1.15;;;;;;;13.59;66.40;99761.94;4484635;32;35092;-71
2022/10/19 02:22:39;;;;;;;1.70;1.33;;;;;;;13.91;64.65;99762.28;4484403;32;34443;-71
2022/10/19 02:25:08;;;;;;;1.40;1.23;;;;;;;14.28;63.74;99761.62;4485729;32;33419;-71
2022/10/19 02:27:38;;;;;;;1.87;1.80;;;;;;;14.23;64.12;99767.78;4485844;32;34744;-72
2022/10/19 02:30:17;;;;;;;1.60;1.50;;;;;;;13.28;67.17;99761.50;4484445;32;34952;-71
2022/10/19 02:32:45;;;;;;;1.75;1.65;;;;;;;13.18;67.47;99765.13;4484200;32;34170;-71
2022/10/19 02:35:14;;;;;;;1.30;1.20;;;;;;;13.13;67.57;99765.22;4484254;32;33402;-71
2022/10/19 02:37:42;;;;;;;2.12;1.92;;;;;;;12.99;67.96;99761.91;4485502;32;33888;-71
2022/10/19 02:40:11;;;;;;;1.20;1.10;;;;;;;13.29;66.64;99763.25;4485458;32;35129;-72
2022/10/19 02:42:55;;;;;;;1.62;1.52;;;;;;;13.17;66.45;99755.59;4484171;32;34596;-71
2022/10/19 02:45:27;;;;;;;0.75;0.75;;;;;;;13.96;64.30;99744.72;4484332;32;33721;-71
2022/10/19 02:48:07;;;;;;;1.10;1.10;;;;;;;14.19;63.38;99744.31;4484151;32;33898;-71
2022/10/19 02:50:35;;;;;;;11.12;1.45;;;;;;;13.11;66.74;99747.81;4484115;32;35043;-71
2022/10/19 02:53:04;;;;;;;5.32;2.17;;;;;;;12.98;68.33;99753.22;4485252;32;34439;-71
2022/10/19 02:55:32;;;;;;;2.08;1.98;;;;;;;12.81;68.67;99748.25;4485252;32;34231;-73
2022/10/19 02:58:00;;;;;;;5.60;3.20;;;;;;;13.17;67.39;99750.34;4485130;32;34769;-71
2022/10/19 03:00:28;;;;;;;1.65;1.55;;;;;;;12.82;68.61;99760.41;4485241;32;35130;-71
2022/10/19 03:02:56;;;;;;;2.50;2.35;;;;;;;13.30;67.40;99756.25;4484974;32;34571;-71
2022/10/19 03:05:24;;;;;;;1.65;1.37;;;;;;;13.52;66.96;99752.47;4485110;32;33450;-71
2022/10/19 03:07:52;;;;;;;1.55;1.45;;;;;;;13.42;68.55;99754.34;4484999;32;33755;-71
2022/10/19 03:10:20;;;;;;;1.17;1.12;;;;;;;13.41;69.48;99756.97;4485226;32;36018;-71
2022/10/19 03:12:48;;;;;;;1.58;1.15;;;;;;;13.69;69.36;99759.16;4484896;32;35291;-74
2022/10/19 03:15:17;;;;;;;2.25;1.87;;;;;;;13.59;69.43;99764.56;4484940;32;33434;-71
2022/10/19 03:17:45;;;;;;;1.60;1.50;;;;;;;13.58;69.81;99777.66;4484902;32;33863;-71
2022/10/19 03:20:13;;;;;;;3.00;2.45;;;;;;;13.73;68.36;99781.75;4493041;31;35029;-70
2022/10/19 03:22:41;;;;;;;1.20;0.98;;;;;;;13.71;68.68;99775.69;4487413;31;34564;-71
2022/10/19 03:25:09;;;;;;;2.20;1.67;;;;;;;13.80;67.99;99776.41;4497588;31;34267;-72
2022/10/19 03:27:37;;;;;;;1.73;1.62;;;;;;;13.60;68.49;99776.72;4489838;31;33862;-71
2022/10/19 03:30:06;;;;;;;2.28;2.15;;;;;;;13.83;67.49;99771.09;4492579;31;35146;-72
2022/10/19 03:32:34;;;;;;;2.20;1.95;;;;;;;13.74;67.89;99771.28;4497981;31;34518;-73
2022/10/19 03:35:02;;;;;;;1.83;1.73;;;;;;;13.77;67.06;99759.91;4489040;31;33607;-71
2022/10/19 03:37:30;;;;;;;1.85;1.70;;;;;;;13.72;67.33;99770.44;4497318;31;34647;-73
2022/10/19 03:39:59;;;;;;;1.40;1.33;;;;;;;13.63;67.40;99767.97;4494308;31;36027;-69
2022/10/19 03:42:27;;;;;;;1.58;1.27;;;;;;;13.90;66.00;99761.41;4491116;31;35187;-71
2022/10/19 03:44:55;;;;;;;16.35;2.12;;;;;;;13.84;66.46;99769.38;4498248;31;33569;-69
2022/10/19 03:47:23;;;;;;;1.52;1.42;;;;;;;13.69;66.54;99773.09;4490431;31;33910;-69
2022/10/19 03:49:51;;;;;;;2.42;2.17;;;;;;;13.77;66.10;99773.84;4493837;31;35147;-70
2022/10/19 03:52:19;;;;;;;1.73;1.25;;;;;;;13.39;67.19;99775.31;4496417;31;35205;-73
2022/10/19 03:54:50;;;;;;;2.28;2.10;;;;;;;13.73;65.62;99769.56;4489053;31;33269;-69
2022/10/19 03:57:19;;;;;;;2.30;2.10;;;;;;;13.80;64.94;99779.03;4498608;31;33413;-70
2022/10/19 03:59:47;;;;;;;1.85;1.10;;;;;;;13.91;64.50;99780.63;4492785;31;34974;-70
2022/10/19 04:02:15;;;;;;;1.85;1.42;;;;;;;13.74;64.75;99775.66;4492093;31;34455;-69
2022/10/19 04:04:43;;;;;;;1.45;1.37;;;;;;;13.70;65.07;99769.59;4498972;31;33324;-74
2022/10/19 04:07:11;;;;;;;5.43;2.42;;;;;;;13.78;64.94;99778.19;4501790;31;32935;-73
2022/10/19 04:09:39;;;;;;;1.90;1.80;;;;;;;13.77;64.67;99770.38;4496086;31;35962;-71
2022/10/19 04:12:07;;;;;;;2.15;2.05;;;;;;;13.95;64.10;99771.81;4486655;32;34374;-71
2022/10/19 04:14:35;;;;;;;2.80;2.12;;;;;;;13.79;64.28;99779.91;4486610;32;34329;-72
2022/10/19 04:17:23;;;;;;;3.85;2.37;;;;;;;13.75;64.21;99783.47;4486653;32;34039;-72
2022/10/19 04:19:51;;;;;;;2.33;2.12;;;;;;;13.95;63.19;99787.50;4485804;32;35111;-72
2022/10/19 04:22:19;;;;;;;1.40;1.30;;;;;;;13.57;64.51;99782.03;4485950;32;34162;-72
2022/10/19 04:24:47;;;;;;;1.83;1.67;;;;;;;13.65;64.26;99781.91;4486579;32;34445;-72
2022/10/19 04:27:15;;;;;;;3.17;2.58;;;;;;;13.63;63.85;99788.91;4486510;32;34005;-72
2022/10/19 04:29:42;;;;;;;3.33;3.08;;;;;;;13.72;63.88;99793.13;4486525;32;34558;-72
2022/10/19 04:32:11;;;;;;;2.78;2.42;;;;;;;13.30;64.90;99775.41;4486462;32;35402;-72
2022/10/19 04:34:39;;;;;;;1.70;1.60;;;;;;;13.81;63.16;99787.75;4486383;32;34355;-71
2022/10/19 04:37:07;;;;;;;2.92;1.83;;;;;;;13.42;64.61;99796.19;4486477;32;34031;-72
2022/10/19 04:39:38;;;;;;;1.98;1.83;;;;;;;13.79;63.04;99785.16;4486329;32;35104;-71
2022/10/19 04:42:06;;;;;;;4.07;3.35;;;;;;;12.92;66.65;99774.22;4485958;32;35349;-72
2022/10/19 04:44:34;;;;;;;5.32;2.42;;;;;;;12.81;66.86;99777.00;4486399;32;33410;-72
2022/10/19 04:47:02;;;;;;;1.48;1.37;;;;;;;13.26;65.70;99772.00;4485314;32;34024;-72
2022/10/19 04:49:30;;;;;;;4.10;1.87;;;;;;;12.93;66.06;99770.72;4486389;32;35148;-72
2022/10/19 04:51:58;;;;;;;1.58;1.48;;;;;;;13.25;65.48;99772.00;4486329;32;34502;-72
2022/10/19 04:54:26;;;;;;;2.00;1.90;;;;;;;12.85;66.94;99772.59;4486441;32;33563;-73
2022/10/19 04:56:54;;;;;;;1.00;1.00;;;;;;;12.67;67.09;99774.53;4486289;32;33886;-72
2022/10/19 04:59:22;;;;;;;1.45;1.35;;;;;;;12.53;67.55;99760.78;4486159;32;35142;-72
2022/10/19 05:01:50;;;;;;;3.62;3.03;;;;;;;12.70;67.74;99766.66;4486339;32;35085;-72
2022/10/19 05:04:18;;;;;;;2.53;2.30;;;;;;;12.61;69.27;99766.75;4486290;32;33444;-72
2022/10/19 05:06:46;;;;;;;2.12;1.77;;;;;;;12.52;70.52;99761.66;4486360;32;34823;-72
2022/10/19 05:09:14;;;;;;;2.97;2.72;;;;;;;12.71;70.48;99757.94;4486078;32;35170;-72
2022/10/19 05:11:42;;;;;;;0.62;0.62;;;;;;;12.59;71.76;99759.84;4486131;32;34556;-72
2022/10/19 05:14:10;;;;;;;1.20;1.10;;;;;;;12.77;71.27;99763.97;4486310;32;33511;-72
2022/10/19 05:16:38;;;;;;;2.40;2.20;;;;;;;12.51;73.18;99767.75;4486360;32;34742;-74
2022/10/19 05:19:06;;;;;;;2.05;1.85;;;;;;;12.41;73.52;99779.22;4486092;32;34978;-71
2022/10/19 05:21:34;;;;;;;0.62;0.62;;;;;;;12.50;73.73;99786.94;4486142;32;34883;-74
2022/10/19 05:24:02;;;;;;;3.00;1.90;;;;;;;12.65;72.96;99778.94;4484937;32;34217;-71
2022/10/19 05:26:30;;;;;;;0.85;0.85;;;;;;;12.36;74.70;99794.06;4484983;32;33581;-71
2022/10/19 05:29:03;;;;;;;2.92;2.15;;;;;;;12.46;74.88;99785.25;4486129;32;35021;-71
2022/10/19 05:31:32;;;;;;;2.78;2.42;;;;;;;12.56;75.31;99791.22;4484947;32;34335;-71
2022/10/19 05:34:02;;;;;;;2.03;1.92;;;;;;;12.49;75.84;99779.97;4484766;32;33410;-71
2022/10/19 05:36:36;;;;;;;4.68;3.22;;;;;;;12.76;74.73;99788.34;4486049;32;33069;-71
2022/10/19 05:39:07;;;;;;;3.55;2.35;;;;;;;12.78;75.26;99789.22;4484857;32;35934;-71
2022/10/19 05:41:34;;;;;;;3.00;2.80;;;;;;;12.90;74.88;99796.91;4486116;32;33662;-71
2022/10/19 05:44:03;;;;;;;1.35;1.25;;;;;;;12.82;76.20;99793.53;4486056;32;33464;-72
2022/10/19 05:46:33;;;;;;;2.53;2.33;;;;;;;12.32;78.68;99795.84;4486004;32;34744;-71
2022/10/19 05:49:01;;;;;;;1.83;1.48;;;;;;;12.61;78.18;99811.19;4485912;32;34590;-71
2022/10/19 05:51:29;;;;;;;2.00;1.42;;;;;;;12.75;77.74;99807.56;4484684;32;35299;-71
2022/10/19 05:53:58;;;;;;;3.25;2.95;;;;;;;13.16;75.69;99809.63;4484721;32;33532;-71
2022/10/19 05:56:28;;;;;;;2.12;1.85;;;;;;;13.31;74.82;99816.44;4485940;32;34045;-72
2022/10/19 05:58:58;;;;;;;2.40;2.20;;;;;;;13.33;74.99;99816.41;4485804;32;35003;-72
2022/10/19 06:01:28;;;;;;;3.15;2.87;;;;;;;13.24;75.66;99817.37;4485889;32;34357;-71
2022/10/19 06:03:57;;;;;;;2.00;1.77;;;;;;;13.33;75.88;99813.78;4485753;32;34345;-71
2022/10/19 06:06:26;;;;;;;3.22;2.97;;;;;;;13.86;74.21;99822.56;4471835;32;32378;-71
2022/10/19 06:08:56;;;;;;;1.35;1.25;;;;;;;14.56;70.90;99828.31;4484783;32;35186;-72
2022/10/19 06:11:26;;;;;;;4.60;4.20;;;;;;;14.39;71.09;99822.50;4485888;32;35352;-71
2022/10/19 06:13:56;;;;;;;1.95;1.85;;;;;;;14.28;71.33;99814.84;4484743;32;32645;-71
2022/10/19 06:16:25;;;;;;;3.30;3.10;;;;;;;13.98;72.96;99816.28;4484665;32;34516;-72
2022/10/19 06:18:54;;;;;;;2.58;2.33;;;;;;;13.81;74.01;99819.16;4484561;32;34765;-71
2022/10/19 06:21:24;;;;;;;2.67;2.45;;;;;;;13.59;75.51;99829.12;4484493;32;34605;-71
2022/10/19 06:24:03;;;;;;;2.55;2.28;;;;;;;13.62;75.48;99829.94;4484563;32;32645;-72
2022/10/19 06:26:33;;;;;;;3.17;1.90;;;;;;;13.70;75.44;99829.78;4485640;32;34745;-71
2022/10/19 06:29:02;;;;;;;3.37;1.27;;;;;;;13.63;75.62;99825.56;4484509;32;34744;-71
2022/10/19 06:31:32;;;;;;;5.37;2.92;;;;;;;13.70;75.53;99837.66;4485462;32;34499;-71
2022/10/19 06:34:01;;;;;;;2.87;2.65;;;;;;;13.61;76.48;99832.56;4485452;32;33566;-71
2022/10/19 06:36:30;;;;;;;2.83;2.58;;;;;;;13.72;76.08;99835.88;4485461;32;33997;-72
2022/10/19 06:39:00;;;;;;;0.70;0.68;;;;;;;13.91;75.69;99836.44;4484506;32;35808;-72
2022/10/19 06:41:30;;;;;;;2.05;1.80;;;;;;;13.75;76.69;99840.22;4485514;32;33798;-71
2022/10/19 06:44:00;;;;;;;0.98;0.98;;;;;;;13.89;76.45;99838.22;4484552;32;33323;-72
2022/10/19 06:46:29;;;;;;;3.95;1.90;;;;;;;13.83;76.87;99839.16;4485348;32;33894;-71
2022/10/19 06:48:59;;;;;;;2.50;2.30;;;;;;;14.06;75.90;99840.53;4485514;32;35908;-71
2022/10/19 06:51:28;;;;;;;0.95;0.95;;;;;;;13.91;76.92;99839.06;4485254;32;33685;-71
2022/10/19 06:53:57;;;;;;;6.53;2.28;;;;;;;14.02;76.47;99849.34;4485157;32;34368;-72
2022/10/19 06:56:25;;;;;;;2.30;2.15;;;;;;;14.20;75.25;99849.03;4485256;32;33939;-72
2022/10/19 06:58:54;;;;;;;1.02;1.00;;;;;;;14.30;75.14;99854.13;4485201;32;35078;-72
2022/10/19 07:01:23;;;;;;;4.82;3.20;;;;;;;14.17;75.64;99858.69;4485164;32;34612;-72
2022/10/19 07:03:51;;;;;;;2.22;1.85;;;;;;;14.23;75.69;99866.47;4484233;32;33626;-71
2022/10/19 07:06:20;;;;;;;1.08;1.00;;;;;;;14.21;75.73;99874.34;4487243;32;33882;-71
2022/10/19 07:08:48;;;;;;;1.60;1.50;;;;;;;14.31;75.15;99871.56;4485952;32;35891;-71
2022/10/19 07:11:19;;;;;;;0.98;0.95;;;;;;;14.60;74.32;99873.69;4487350;32;35042;-72
2022/10/19 07:13:47;;;;;;;2.20;2.00;;;;;;;14.74;74.04;99876.06;4485975;32;33378;-71
2022/10/19 07:16:16;;;;;;;1.52;1.42;;;;;;;15.00;73.14;99883.41;4487046;32;33922;-72
2022/10/19 07:18:50;;;;;;;1.48;1.37;;;;;;;14.95;73.04;99875.62;4487010;32;35044;-72
2022/10/19 07:21:20;;;;;;;1.42;1.35;;;;;;;15.01;72.89;99884.28;4484763;31;34499;-72
2022/10/19 07:23:49;;;;;;;1.75;1.65;;;;;;;15.01;73.44;99894.75;4500022;31;32700;-73
2022/10/19 07:26:20;;;;;;;2.37;2.17;;;;;;;15.04;73.14;99890.31;4489937;31;34049;-73
2022/10/19 07:28:49;;;;;;;0.60;0.60;;;;;;;15.28;72.26;99899.44;4495733;31;35123;-73
2022/10/19 07:31:20;;;;;;;2.00;1.70;;;;;;;15.40;71.93;99908.81;4495372;31;35358;-72
2022/10/19 07:34:06;;;;;;;2.78;2.33;;;;;;;15.61;70.49;99906.62;4487976;31;33560;-74
2022/10/19 07:36:35;;;;;;;2.37;2.17;;;;;;;15.38;71.48;99912.38;4497426;31;34021;-72
2022/10/19 07:39:05;;;;;;;2.50;1.83;;;;;;;15.75;70.42;99920.31;4494678;31;35043;-71
2022/10/19 07:41:33;;;;;;;2.30;2.08;;;;;;;15.77;69.77;99921.16;4490474;31;35335;-73
2022/10/19 07:44:02;;;;;;;3.50;2.95;;;;;;;15.97;69.41;99915.47;4499511;31;33707;-75
2022/10/19 07:46:36;;;;;;;1.48;1.17;;;;;;;16.30;68.08;99923.41;4489811;31;33905;-75
2022/10/19 07:49:10;;;;;;;1.25;1.17;;;;;;;16.44;68.14;99917.81;4492607;31;35855;-72
2022/10/19 07:51:39;;;;;;;1.52;1.42;;;;;;;16.53;68.12;99912.28;4498425;31;35280;-71
2022/10/19 07:54:07;;;;;;;1.75;1.65;;;;;;;16.64;67.58;99912.00;4488934;31;33451;-74
2022/10/19 07:56:35;;;;;;;0.75;0.75;;;;;;;17.11;65.20;99907.25;4502359;31;33873;-72
2022/10/19 07:59:04;;;;;;;1.23;1.15;;;;;;;17.17;65.71;99900.94;4502426;31;35023;-72
2022/10/19 08:01:39;;;;;;;2.00;1.00;;;;;;;17.88;63.13;99896.22;4502540;31;34327;-73
2022/10/19 08:04:08;;;;;;;1.60;1.50;;;;;;;18.01;62.53;99892.28;4502505;31;34229;-74
2022/10/19 08:06:56;;;;;;;0.98;0.80;;;;;;;18.46;60.63;99901.31;4501134;31;33443;-73
2022/10/19 08:09:24;;;;;;;1.52;1.42;;;;;;;18.90;59.28;99896.28;4496753;31;35883;-71
2022/10/19 08:12:13;;;;;;;1.37;1.27;;;;;;;18.91;58.66;99896.25;4487867;31;34255;-71
2022/10/19 08:14:42;;;;;;;2.28;1.48;;;;;;;19.29;57.31;99893.97;4497129;31;33425;-72
2022/10/19 08:17:15;;;;;;;0.85;0.75;;;;;;;19.76;56.08;99898.34;4493174;31;34713;-71
2022/10/19 08:19:45;;;;;;;1.58;1.40;;;;;;;19.91;55.68;99890.72;4490451;31;35015;-72
2022/10/19 08:22:13;;;;;;;0.70;0.70;;;;;;;19.98;55.11;99898.38;4499038;31;35274;-73
2022/10/19 08:24:41;;;;;;;1.45;0.70;;;;;;;20.12;55.10;99895.16;4490831;31;34192;-73
2022/10/19 08:27:09;;;;;;;1.30;1.20;;;;;;;20.55;53.89;99896.00;4493943;31;33950;-74
2022/10/19 08:29:37;;;;;;;1.90;1.17;;;;;;;20.82;53.20;99895.75;4495698;31;34595;-73
2022/10/19 08:32:05;;;;;;;0.68;0.68;;;;;;;20.73;52.57;99902.28;4488607;31;34553;-72
2022/10/19 08:34:33;;;;;;;0.50;0.50;;;;;;;21.31;51.21;99901.47;4497735;31;33537;-71
2022/10/19 08:37:02;;;;;;;0.55;0.55;;;;;;;21.23;51.56;99900.97;4492920;31;34598;-71
2022/10/19 08:39:47;;;;;;;24.02;1.12;;;;;;;21.32;50.43;99903.19;4488916;31;35787;-72
2022/10/19 08:42:22;;;;;;;1.70;1.33;;;;;;;21.43;49.96;99897.41;4499025;31;35346;-73
2022/10/19 08:45:22;;;;;;;0.40;0.40;;;;;;;22.00;49.04;99892.06;4490531;31;34229;-73
2022/10/19 08:48:02;;;;;;;0.43;0.43;;;;;;;22.31;47.57;99888.78;4483459;31;34146;-72
2022/10/19 08:50:40;;;;;;;0.50;0.50;;;;;;;22.55;47.65;99887.59;4484815;32;34684;-73
2022/10/19 08:53:18;;;;;;;0.55;0.55;;;;;;;23.11;46.33;99897.06;4492454;31;35286;-73
2022/10/19 08:55:49;;;;;;;0.57;0.57;;;;;;;23.85;44.45;99898.34;4489910;31;33140;-73
2022/10/19 08:58:51;;;;;;;1.30;1.20;;;;;;;24.27;43.74;99896.81;4494516;31;33478;-71
2022/10/19 09:01:30;;;;;;;0.50;0.50;;;;;;;24.52;42.56;99903.34;4490764;31;35782;-74
2022/10/19 09:04:15;;;;;;;0.62;0.43;;;;;;;24.69;41.77;99899.66;4490947;31;35162;-73
2022/10/19 09:06:50;;;;;;;1.02;1.02;;;;;;;24.92;41.05;99895.63;4498876;31;33468;-75
2022/10/19 09:09:19;;;;;;;0.73;0.73;;;;;;;25.53;39.94;99896.28;4490495;31;32727;-71
2022/10/19 09:11:50;;;;;;;0.65;0.65;;;;;;;25.51;38.95;99891.03;4493492;31;36032;-70
2022/10/19 09:14:26;;;;;;;0.40;0.40;;;;;;;25.86;38.46;99895.06;4495776;31;35115;-74
2022/10/19 09:16:59;;;;;;;0.40;0.40;;;;;;;26.69;37.40;99894.03;4487311;31;33611;-76
2022/10/19 09:19:29;;;;;;;0.30;0.30;;;;;;;27.35;35.83;99898.25;4494941;31;34065;-73
2022/10/19 09:22:15;;;;;;;0.37;0.37;;;;;;;27.45;37.40;99885.09;4476843;32;295017;-75
2022/10/19 09:24:49;;;;;;;0.68;0.57;;;;;;;27.71;34.99;99891.22;4485031;32;34559;-71
2022/10/19 09:27:31;;;;;;;0.20;0.20;;;;;;;28.26;34.14;99888.13;4484821;32;34291;-75
2022/10/19 09:30:02;;;;;;;0.30;0.30;;;;;;;27.99;34.81;99894.56;4483719;31;33681;-74
2022/10/19 09:32:37;;;;;;;0.90;0.88;;;;;;;28.11;34.35;99899.00;4486106;31;34920;-76
2022/10/19 09:35:22;;;;;;;0.77;0.70;;;;;;;28.01;34.20;99908.69;4488416;31;34581;-74
2022/10/19 09:37:51;;;;;;;0.30;0.30;;;;;;;27.96;34.42;99906.34;4492527;31;33756;-75
2022/10/19 09:40:26;;;;;;;0.35;0.35;;;;;;;27.80;33.50;99901.25;4495282;31;34759;-76
2022/10/19 09:42:56;;;;;;;0.52;0.52;;;;;;;28.00;32.65;99909.66;4488223;31;35042;-73
2022/10/19 09:45:30;;;;;;;1.37;1.27;;;;;;;27.86;34.02;99916.00;4496200;31;34350;-73
2022/10/19 09:48:01;;;;;;;0.40;0.40;;;;;;;26.70;34.62;99903.75;4485659;32;33547;-73
2022/10/19 09:50:42;;;;;;;0.22;0.22;;;;;;;26.97;34.58;99896.47;4484881;32;34888;-72
2022/10/19 09:53:20;;;;;;;1.15;0.55;;;;;;;25.88;35.42;99907.31;4485983;32;35186;-71
2022/10/19 09:55:59;;;;;;;0.35;0.35;;;;;;;25.88;35.88;99904.66;4484953;32;34050;-71
2022/10/19 09:58:29;;;;;;;0.30;0.30;;;;;;;25.77;35.44;99909.00;4484551;32;34347;-70
2022/10/19 10:01:01;;;;;;;0.37;0.37;;;;;;;26.35;34.63;99901.63;4486152;32;33929;-72
2022/10/19 10:03:42;;;;;;;0.30;0.30;;;;;;;26.60;34.05;99906.16;4485893;32;35275;-70
2022/10/19 10:06:15;;;;;;;1.10;0.77;;;;;;;26.38;33.91;99902.25;4485999;32;35100;-71
2022/10/19 10:08:46;;;;;;;0.25;0.25;;;;;;;26.15;34.10;99895.81;4484824;32;33632;-71
2022/10/19 10:11:22;;;;;;;0.40;0.40;;;;;;;26.16;34.33;99894.03;4485789;32;33952;-71
2022/10/19 10:13:52;;;;;;;0.35;0.35;;;;;;;25.99;36.18;99893.31;4484646;32;34782;-71
2022/10/19 10:16:23;;;;;;;0.47;0.47;;;;;;;25.96;35.63;99889.97;4484513;32;34404;-71
2022/10/19 10:18:55;;;;;;;0.15;0.15;;;;;;;26.19;34.85;99894.66;4485707;32;34598;-71
2022/10/19 10:21:25;;;;;;;0.30;0.30;;;;;;;26.13;33.19;99884.38;4485716;32;34017;-71
2022/10/19 10:24:10;;;;;;;0.47;0.40;;;;;;;25.92;33.64;99884.84;4485978;32;35150;-71
2022/10/19 10:26:44;;;;;;;0.52;0.47;;;;;;;25.85;33.52;99886.16;4485609;32;34532;-71
2022/10/19 10:29:33;;;;;;;0.30;0.30;;;;;;;25.86;34.85;99879.87;4484489;32;33459;-71
2022/10/19 10:32:17;;;;;;;1.00;0.80;;;;;;;25.72;32.84;99877.28;4485648;32;34012;-71
2022/10/19 10:34:54;;;;;;;0.95;0.55;;;;;;;26.21;34.08;99863.37;4485484;32;35068;-71
2022/10/19 10:37:35;;;;;;;0.95;0.85;;;;;;;26.09;34.90;99864.19;4484436;32;34505;-70
2022/10/19 10:40:06;;;;;;;0.15;0.15;;;;;;;25.88;35.35;99861.13;4484756;32;33467;-70
2022/10/19 10:42:40;;;;;;;0.13;0.13;;;;;;;26.17;35.82;99853.88;4484295;32;33922;-72
2022/10/19 10:45:22;;;;;;;0.62;0.52;;;;;;;26.27;34.41;99860.28;4485407;32;34992;-71
2022/10/19 10:47:51;;;;;;;0.88;0.55;;;;;;;26.32;34.79;99851.97;4485363;32;34579;-71
2022/10/19 10:50:22;;;;;;;0.32;0.32;;;;;;;25.76;35.51;99846.75;4485358;32;33445;-72
2022/10/19 10:52:59;;;;;;;0.45;0.20;;;;;;;26.13;35.76;99847.00;4485247;32;34018;-71
2022/10/19 10:55:28;;;;;;;0.60;0.60;;;;;;;26.63;34.86;99856.09;4484113;32;35128;-71
2022/10/19 10:58:21;;;;;;;0.80;0.80;;;;;;;26.37;33.35;99844.50;4484002;32;34450;-71
2022/10/19 11:00:55;;;;;;;0.30;0.30;;;;;;;26.18;30.72;99834.22;4485172;32;34279;-70
2022/10/19 11:03:27;;;;;;;0.40;0.40;;;;;;;26.27;31.05;99841.59;4484037;32;34698;-71
2022/10/19 11:06:01;;;;;;;0.28;0.28;;;;;;;26.98;30.27;99838.53;4483973;32;35849;-71
2022/10/19 11:08:49;;;;;;;0.62;0.62;;;;;;;27.00;28.54;99834.81;4485076;32;34546;-71
2022/10/19 11:11:25;;;;;;;0.20;0.20;;;;;;;27.04;29.69;99828.25;4483934;32;33367;-71
2022/10/19 11:13:58;;;;;;;0.30;0.30;;;;;;;27.04;30.08;99830.09;4483893;32;34843;-71
2022/10/19 11:16:54;;;;;;;0.25;0.25;;;;;;;26.97;31.38;99821.66;4485080;32;35042;-72
2022/10/19 11:19:31;;;;;;;0.80;0.32;;;;;;;27.52;31.12;99826.66;4482922;32;35175;-71
2022/10/19 11:22:20;;;;;;;0.17;0.17;;;;;;;27.68;30.99;99819.19;4483729;32;33480;-76
2022/10/19 11:25:17;;;;;;;0.35;0.35;;;;;;;27.59;29.91;99823.41;4483853;32;34772;-74
2022/10/19 11:27:45;;;;;;;0.47;0.47;;;;;;;27.52;30.65;99819.50;4484778;32;35075;-71
2022/10/19 11:30:19;;;;;;;0.43;0.30;;;;;;;26.84;31.06;99831.50;4484620;32;34563;-71
2022/10/19 11:33:04;;;;;;;0.43;0.43;;;;;;;26.26;32.95;99821.22;4483452;32;33353;-71
2022/10/19 11:35:38;;;;;;;0.68;0.30;;;;;;;25.77;33.13;99813.81;4484619;32;34007;-72
2022/10/19 11:38:48;;;;;;;0.20;0.20;;;;;;;25.39;33.66;99819.81;4483651;32;35890;-69
2022/10/19 11:41:25;;;;;;;0.20;0.20;;;;;;;25.68;34.33;99817.94;4483502;32;34474;-75
2022/10/19 11:44:06;;;;;;;0.30;0.30;;;;;;;25.54;35.13;99813.50;4484665;32;33544;-71
2022/10/19 11:47:03;;;;;;;0.37;0.37;;;;;;;24.94;36.19;99803.16;4484490;32;34022;-70
2022/10/19 11:49:50;;;;;;;0.20;0.20;;;;;;;23.67;36.44;99805.34;4479196;32;35072;-71
2022/10/19 11:52:55;;;;;;;0.40;0.40;;;;;;;23.32;38.15;99803.84;4487096;31;34761;-69
2022/10/19 11:55:45;;;;;;;0.30;0.30;;;;;;;23.13;39.21;99804.84;4491422;31;34348;-69
2022/10/19 11:58:41;;;;;;;0.37;0.37;;;;;;;23.07;39.79;99806.06;4491621;31;34751;-73
2022/10/19 12:01:31;;;;;;;0.55;0.55;;;;;;;22.27;38.25;99809.41;4485574;32;34933;-69